createdAt,value
2022-10-01T09:19:00.966Z,10.90
2022-10-01T09:21:43.375Z,10.90
2022-10-01T09:24:16.447Z,10.90
2022-10-01T09:29:23.015Z,11.00
2022-10-01T09:31:51.991Z,11.10
2022-10-01T09:34:32.729Z,11.10
2022-10-01T09:37:30.271Z,11.00
2022-10-01T09:40:12.598Z,11.00
2022-10-01T09:42:39.194Z,11.00
2022-10-01T09:45:06.230Z,11.00
2022-10-01T09:47:34.347Z,11.00
2022-10-01T09:50:05.245Z,10.90
2022-10-01T09:52:38.055Z,10.90
2022-10-01T09:55:40.293Z,11.00
2022-10-01T09:58:18.139Z,11.00
2022-10-01T10:00:45.640Z,11.10
2022-10-01T10:03:27.025Z,11.10
2022-10-01T10:05:54.888Z,11.10
2022-10-01T10:08:31.782Z,11.10
2022-10-01T10:11:00.623Z,11.10
2022-10-01T10:13:34.983Z,11.10
2022-10-01T10:16:10.472Z,11.10
2022-10-01T10:18:39.801Z,11.20
2022-10-01T10:21:15.385Z,11.20
2022-10-01T10:23:57.154Z,11.20
2022-10-01T10:26:39.187Z,11.20
2022-10-01T10:29:08.516Z,11.30
2022-10-01T10:31:44.534Z,11.30
2022-10-01T10:34:39.273Z,11.30
2022-10-01T10:37:15.787Z,11.40
2022-10-01T10:39:47.219Z,11.40
2022-10-01T10:42:15.691Z,11.40
2022-10-01T10:44:45.723Z,11.60
2022-10-01T10:47:15.016Z,11.60
2022-10-01T10:49:47.171Z,11.70
2022-10-01T10:52:36.136Z,11.80
2022-10-01T10:55:22.794Z,11.90
2022-10-01T10:57:51.552Z,11.90
2022-10-01T11:03:02.177Z,12.20
2022-10-01T11:05:32.661Z,12.50
2022-10-01T11:08:03.691Z,12.80
2022-10-01T11:26:53.532Z,12.80
2022-10-01T11:29:37.269Z,12.80
2022-10-01T11:32:37.959Z,12.70
2022-10-01T11:35:45.854Z,12.70
2022-10-01T11:38:36.209Z,12.70
2022-10-01T11:41:16.712Z,12.60
2022-10-01T11:43:53.230Z,12.60
2022-10-01T11:46:40.077Z,12.50
2022-10-01T11:49:19.028Z,12.50
2022-10-01T11:52:02.126Z,12.50
2022-10-01T11:54:31.413Z,12.50
2022-10-01T11:57:17.832Z,12.50
2022-10-01T11:59:54.151Z,12.50
2022-10-01T12:02:39.391Z,12.40
2022-10-01T12:05:10.419Z,12.40
2022-10-01T12:08:09.848Z,12.40
2022-10-01T12:10:43.256Z,12.40
2022-10-01T12:13:23.840Z,12.50
2022-10-01T12:16:04.983Z,12.50
2022-10-01T12:19:00.834Z,12.60
2022-10-01T12:21:33.849Z,12.80
2022-10-01T12:24:24.284Z,12.90
2022-10-01T12:27:00.923Z,13.00
2022-10-01T12:51:16.369Z,14.00
2022-10-01T12:53:52.335Z,14.00
2022-10-01T12:56:38.159Z,14.10
2022-10-01T12:59:17.853Z,14.40
2022-10-01T13:01:56.361Z,14.70
2022-10-01T13:05:00.364Z,14.80
2022-10-01T13:07:50.080Z,14.80
2022-10-01T13:10:40.728Z,14.80
2022-10-01T13:13:42.928Z,14.90
2022-10-01T13:16:12.032Z,14.90
2022-10-01T13:18:47.688Z,14.70
2022-10-01T13:21:40.839Z,14.50
2022-10-01T13:24:16.285Z,14.30
2022-10-01T13:26:42.784Z,14.40
2022-10-01T13:29:31.096Z,14.40
2022-10-01T13:32:04.024Z,14.50
2022-10-01T13:34:38.914Z,14.60
2022-10-01T13:37:17.311Z,14.70
2022-10-01T13:39:47.649Z,14.90
2022-10-01T13:42:22.881Z,15.00
2022-10-01T13:44:58.472Z,15.20
2022-10-01T13:47:26.014Z,15.30
2022-10-01T13:50:00.030Z,15.20
2022-10-01T13:52:27.156Z,15.60
2022-10-01T13:54:56.561Z,15.50
2022-10-01T14:56:30.757Z,15.40
2022-10-01T15:17:06.364Z,14.60
2022-10-01T15:19:37.378Z,14.50
2022-10-01T16:58:09.719Z,13.80
2022-10-01T17:00:37.378Z,13.80
2022-10-01T17:03:06.553Z,13.80
2022-10-01T17:05:35.615Z,13.80
2022-10-01T17:08:05.049Z,13.80
2022-10-01T17:10:36.715Z,13.80
2022-10-01T17:13:03.626Z,13.80
2022-10-01T17:15:31.245Z,13.80
2022-10-01T17:17:58.904Z,13.70
2022-10-01T17:20:30.925Z,13.70
2022-10-01T17:22:58.309Z,13.70
2022-10-01T17:25:30.952Z,13.60
2022-10-01T17:27:58.680Z,13.50
2022-10-01T17:30:28.985Z,13.50
2022-10-01T17:32:56.774Z,13.40
2022-10-01T17:35:23.590Z,13.50
2022-10-01T17:37:50.136Z,13.40
2022-10-01T17:40:16.854Z,13.40
2022-10-01T17:42:43.427Z,13.40
2022-10-01T17:45:11.692Z,13.40
2022-10-01T17:47:43.783Z,13.40
2022-10-01T17:50:10.592Z,13.50
2022-10-01T17:52:37.135Z,13.60
2022-10-01T17:55:04.347Z,13.60
2022-10-01T17:57:31.344Z,13.50
2022-10-01T17:59:57.893Z,13.40
2022-10-01T18:02:40.911Z,13.40
2022-10-01T18:05:09.604Z,13.30
2022-10-01T18:07:37.148Z,13.30
2022-10-01T18:10:09.514Z,13.30
2022-10-01T18:12:36.088Z,13.30
2022-10-01T18:15:02.707Z,13.30
2022-10-01T18:17:32.080Z,13.30
2022-10-01T18:19:59.005Z,13.30
2022-10-01T18:22:26.504Z,13.30
2022-10-01T18:24:53.159Z,13.20
2022-10-01T18:27:19.864Z,13.20
2022-10-01T18:29:46.440Z,13.10
2022-10-01T18:32:17.159Z,13.10
2022-10-01T18:34:47.516Z,13.00
2022-10-01T18:37:29.888Z,12.90
2022-10-01T18:40:12.349Z,12.90
2022-10-01T18:42:49.269Z,12.90
2022-10-01T18:45:44.279Z,12.70
2022-10-01T18:48:35.370Z,12.60
2022-10-01T18:51:29.178Z,12.50
2022-10-01T18:54:19.455Z,12.40
2022-10-01T18:56:59.433Z,12.30
2022-10-01T18:59:56.872Z,12.30
2022-10-01T19:02:49.490Z,12.20
2022-10-01T19:05:41.365Z,12.20
2022-10-01T19:08:23.564Z,12.20
2022-10-01T19:11:08.172Z,12.20
2022-10-01T19:13:48.338Z,12.30
2022-10-01T19:16:32.887Z,12.30
2022-10-01T19:19:21.304Z,12.40
2022-10-01T19:21:59.559Z,12.30
2022-10-01T19:24:52.084Z,12.30
2022-10-01T19:27:57.802Z,12.30
2022-10-01T19:30:24.437Z,12.30
2022-10-01T19:32:59.751Z,12.30
2022-10-01T19:35:41.591Z,12.30
2022-10-01T19:38:18.362Z,12.40
2022-10-01T19:41:08.304Z,12.40
2022-10-01T19:43:52.433Z,12.40
2022-10-01T19:46:36.234Z,12.50
2022-10-01T19:49:09.004Z,12.50
2022-10-01T19:51:37.106Z,12.50
2022-10-01T19:54:09.980Z,12.60
2022-10-01T19:56:38.391Z,12.60
2022-10-01T19:59:14.307Z,12.60
2022-10-01T20:01:50.528Z,12.70
2022-10-01T20:04:34.169Z,12.60
2022-10-01T20:07:07.379Z,12.60
2022-10-01T20:09:47.371Z,12.70
2022-10-01T20:12:26.129Z,12.70
2022-10-01T20:15:12.506Z,12.60
2022-10-01T20:17:57.910Z,12.70
2022-10-01T20:20:40.030Z,12.70
2022-10-01T20:23:27.780Z,12.80
2022-10-01T20:26:15.499Z,12.80
2022-10-01T20:28:55.438Z,12.90
2022-10-01T20:31:35.831Z,13.00
2022-10-01T20:34:15.498Z,13.00
2022-10-01T20:36:49.980Z,13.00
2022-10-01T20:39:22.433Z,13.00
2022-10-01T20:41:53.169Z,12.90
2022-10-01T20:44:25.937Z,12.80
2022-10-01T20:46:59.552Z,12.80
2022-10-01T20:49:32.082Z,12.70
2022-10-01T20:52:20.176Z,12.70
2022-10-01T20:55:00.117Z,12.80
2022-10-01T20:57:49.166Z,12.80
2022-10-01T21:00:20.941Z,12.80
2022-10-01T21:03:17.204Z,12.90
2022-10-01T21:05:55.736Z,12.80
2022-10-01T21:08:34.389Z,12.80
2022-10-01T21:11:07.425Z,12.80
2022-10-01T21:13:52.157Z,12.80
2022-10-01T21:16:37.323Z,12.90
2022-10-01T21:19:25.916Z,13.00
2022-10-01T21:22:13.648Z,13.00
2022-10-01T21:24:57.479Z,12.90
2022-10-01T21:27:40.349Z,12.70
2022-10-01T21:30:09.539Z,12.80
2022-10-01T21:33:13.646Z,12.70
2022-10-01T21:35:43.301Z,12.70
2022-10-01T21:38:47.069Z,12.60
2022-10-01T21:41:22.997Z,12.60
2022-10-01T21:44:19.840Z,12.50
2022-10-01T21:46:57.980Z,12.60
2022-10-01T21:49:39.588Z,12.60
2022-10-01T21:52:18.051Z,12.70
2022-10-01T21:54:53.746Z,12.70
2022-10-01T21:57:36.929Z,12.60
2022-10-01T22:00:23.906Z,12.60
2022-10-01T22:03:00.307Z,12.50
2022-10-01T22:05:51.709Z,12.50
2022-10-01T22:08:43.576Z,12.50
2022-10-01T22:11:19.888Z,12.50
2022-10-01T22:13:55.958Z,12.40
2022-10-01T22:16:25.920Z,12.40
2022-10-01T22:18:58.063Z,12.40
2022-10-01T22:21:24.623Z,12.50
2022-10-01T22:23:58.843Z,12.50
2022-10-01T22:26:29.837Z,12.40
2022-10-01T22:28:57.490Z,12.40
2022-10-01T22:31:31.149Z,12.40
2022-10-01T22:34:06.018Z,12.50
2022-10-01T22:36:48.172Z,12.40
2022-10-01T22:39:28.632Z,12.50
2022-10-01T22:42:14.136Z,12.70
2022-10-01T22:44:40.960Z,12.40
2022-10-01T22:47:33.915Z,12.50
2022-10-01T22:50:34.453Z,12.40
2022-10-01T22:53:14.747Z,12.30
2022-10-01T22:55:41.283Z,12.30
2022-10-01T22:58:42.022Z,12.30
2022-10-01T23:01:27.343Z,12.10
2022-10-01T23:04:12.471Z,12.00
2022-10-01T23:06:52.852Z,11.90
2022-10-01T23:09:43.550Z,11.80
2022-10-01T23:12:24.390Z,11.60
2022-10-01T23:15:21.034Z,11.60
2022-10-01T23:18:02.917Z,11.50
2022-10-01T23:20:31.830Z,11.50
2022-10-01T23:23:06.959Z,11.50
2022-10-01T23:25:49.808Z,11.40
2022-10-01T23:28:19.352Z,11.40
2022-10-01T23:31:04.742Z,11.30
2022-10-01T23:33:41.460Z,11.20
2022-10-01T23:36:28.589Z,11.30
2022-10-01T23:39:11.308Z,11.30
2022-10-01T23:41:45.358Z,11.40
2022-10-01T23:44:32.900Z,11.50
2022-10-01T23:47:04.118Z,11.60
2022-10-01T23:49:36.860Z,11.70
2022-10-01T23:52:18.798Z,11.70
2022-10-01T23:54:56.443Z,11.80
2022-10-01T23:57:33.953Z,11.80
